sensor_id;sensor_type;location;lat;lon;timestamp;pressure;altitude;pressure_sealevel;temperature;humidity
6668;BME280;3370;47.712;9.082;2022-10-18T00:02:14;98051.50;;;12.36;100.00
6668;BME280;3370;47.712;9.082;2022-10-18T00:04:40;98055.84;;;12.35;100.00
6668;BME280;3370;47.712;9.082;2022-10-18T00:07:05;98050.56;;;12.38;100.00
6668;BME280;3370;47.712;9.082;2022-10-18T00:09:31;98046.88;;;12.45;100.00
6668;BME280;3370;47.712;9.082;2022-10-18T00:11:57;98045.13;;;12.46;100.00
6668;BME280;3370;47.712;9.082;2022-10-18T00:14:24;98051.06;;;12.48;100.00
6668;BME280;3370;47.712;9.082;2022-10-18T00:16:50;98048.34;;;12.53;100.00
6668;BME280;3370;47.712;9.082;2022-10-18T00:19:16;98055.22;;;12.52;100.00
6668;BME280;3370;47.712;9.082;2022-10-18T00:21:42;98058.66;;;12.53;100.00
6668;BME280;3370;47.712;9.082;2022-10-18T00:24:08;98057.72;;;12.54;100.00
6668;BME280;3370;47.712;9.082;2022-10-18T00:26:34;98050.78;;;12.56;100.00
6668;BME280;3370;47.712;9.082;2022-10-18T00:29:04;98053.50;;;12.53;100.00
6668;BME280;3370;47.712;9.082;2022-10-18T00:31:35;98042.69;;;12.65;100.00
6668;BME280;3370;47.712;9.082;2022-10-18T00:34:08;98025.41;;;12.67;100.00
6668;BME280;3370;47.712;9.082;2022-10-18T00:36:34;98027.06;;;12.70;100.00
6668;BME280;3370;47.712;9.082;2022-10-18T00:39:03;98038.63;;;12.81;100.00
6668;BME280;3370;47.712;9.082;2022-10-18T00:41:34;98043.06;;;12.78;100.00
6668;BME280;3370;47.712;9.082;2022-10-18T00:46:34;98051.25;;;12.89;100.00
6668;BME280;3370;47.712;9.082;2022-10-18T00:49:11;98062.38;;;12.91;100.00
6668;BME280;3370;47.712;9.082;2022-10-18T00:54:14;98069.63;;;12.58;100.00
6668;BME280;3370;47.712;9.082;2022-10-18T00:56:41;98060.22;;;12.57;100.00
6668;BME280;3370;47.712;9.082;2022-10-18T00:59:12;98060.94;;;12.60;100.00
6668;BME280;3370;47.712;9.082;2022-10-18T01:01:39;98066.94;;;12.61;100.00
6668;BME280;3370;47.712;9.082;2022-10-18T01:04:05;98075.16;;;12.71;100.00
6668;BME280;3370;47.712;9.082;2022-10-18T01:06:31;98075.69;;;12.57;100.00
6668;BME280;3370;47.712;9.082;2022-10-18T01:09:20;98068.97;;;12.53;100.00
6668;BME280;3370;47.712;9.082;2022-10-18T01:14:56;98057.50;;;12.60;100.00
6668;BME280;3370;47.712;9.082;2022-10-18T01:24:02;98056.88;;;12.77;100.00
6668;BME280;3370;47.712;9.082;2022-10-18T01:32:30;98050.63;;;12.60;100.00
6668;BME280;3370;47.712;9.082;2022-10-18T01:35:04;98056.72;;;12.58;100.00
6668;BME280;3370;47.712;9.082;2022-10-18T01:37:34;98063.47;;;12.62;100.00
6668;BME280;3370;47.712;9.082;2022-10-18T01:40:03;98059.88;;;12.66;100.00
6668;BME280;3370;47.712;9.082;2022-10-18T01:42:31;98055.31;;;12.73;100.00
6668;BME280;3370;47.712;9.082;2022-10-18T01:44:58;98058.16;;;12.65;100.00
6668;BME280;3370;47.712;9.082;2022-10-18T01:47:27;98046.06;;;12.67;100.00
6668;BME280;3370;47.712;9.082;2022-10-18T01:50:02;98048.41;;;12.73;100.00
6668;BME280;3370;47.712;9.082;2022-10-18T01:52:28;98047.63;;;12.71;100.00
6668;BME280;3370;47.712;9.082;2022-10-18T01:54:54;98041.03;;;12.64;100.00
6668;BME280;3370;47.712;9.082;2022-10-18T01:57:41;98049.19;;;12.75;100.00
6668;BME280;3370;47.712;9.082;2022-10-18T02:00:26;98049.09;;;12.78;100.00
6668;BME280;3370;47.712;9.082;2022-10-18T02:03:22;98051.66;;;12.78;100.00
6668;BME280;3370;47.712;9.082;2022-10-18T02:06:34;98064.94;;;12.91;100.00
6668;BME280;3370;47.712;9.082;2022-10-18T02:09:08;98059.69;;;12.71;100.00
6668;BME280;3370;47.712;9.082;2022-10-18T02:11:39;98057.41;;;12.63;100.00
6668;BME280;3370;47.712;9.082;2022-10-18T02:14:10;98056.50;;;12.64;100.00
6668;BME280;3370;47.712;9.082;2022-10-18T02:16:55;98051.88;;;12.72;100.00
6668;BME280;3370;47.712;9.082;2022-10-18T02:19:37;98042.69;;;12.65;100.00
6668;BME280;3370;47.712;9.082;2022-10-18T02:22:08;98039.22;;;12.66;100.00
6668;BME280;3370;47.712;9.082;2022-10-18T02:24:42;98044.19;;;12.71;100.00
6668;BME280;3370;47.712;9.082;2022-10-18T02:27:09;98049.97;;;12.77;100.00
6668;BME280;3370;47.712;9.082;2022-10-18T02:29:35;98042.59;;;12.68;100.00
6668;BME280;3370;47.712;9.082;2022-10-18T02:35:02;98049.25;;;12.74;100.00
6668;BME280;3370;47.712;9.082;2022-10-18T02:37:33;98051.94;;;12.71;100.00
6668;BME280;3370;47.712;9.082;2022-10-18T02:40:04;98053.53;;;12.75;100.00
6668;BME280;3370;47.712;9.082;2022-10-18T02:42:43;98051.00;;;12.73;100.00
6668;BME280;3370;47.712;9.082;2022-10-18T02:45:11;98042.44;;;12.73;100.00
6668;BME280;3370;47.712;9.082;2022-10-18T02:47:37;98040.84;;;12.69;100.00
6668;BME280;3370;47.712;9.082;2022-10-18T02:50:04;98043.94;;;12.78;100.00
6668;BME280;3370;47.712;9.082;2022-10-18T02:52:30;98038.94;;;12.74;100.00
6668;BME280;3370;47.712;9.082;2022-10-18T02:54:56;98037.00;;;12.79;100.00
6668;BME280;3370;47.712;9.082;2022-10-18T02:57:22;98050.19;;;12.95;100.00
6668;BME280;3370;47.712;9.082;2022-10-18T02:59:47;98049.63;;;12.87;100.00
6668;BME280;3370;47.712;9.082;2022-10-18T03:02:13;98058.09;;;12.90;100.00
6668;BME280;3370;47.712;9.082;2022-10-18T03:04:39;98063.59;;;12.81;100.00
6668;BME280;3370;47.712;9.082;2022-10-18T03:07:05;98067.22;;;12.77;100.00
6668;BME280;3370;47.712;9.082;2022-10-18T03:09:31;98057.03;;;12.72;100.00
6668;BME280;3370;47.712;9.082;2022-10-18T03:11:57;98070.09;;;12.69;100.00
6668;BME280;3370;47.712;9.082;2022-10-18T03:14:22;98062.78;;;12.80;100.00
6668;BME280;3370;47.712;9.082;2022-10-18T03:16:48;98071.50;;;13.00;100.00
6668;BME280;3370;47.712;9.082;2022-10-18T03:19:14;98074.25;;;12.95;100.00
6668;BME280;3370;47.712;9.082;2022-10-18T03:21:40;98076.09;;;12.92;100.00
6668;BME280;3370;47.712;9.082;2022-10-18T03:24:06;98061.84;;;12.81;100.00
6668;BME280;3370;47.712;9.082;2022-10-18T03:26:32;98062.00;;;12.78;100.00
6668;BME280;3370;47.712;9.082;2022-10-18T03:28:58;98070.47;;;12.82;100.00
6668;BME280;3370;47.712;9.082;2022-10-18T03:31:23;98073.81;;;12.84;100.00
6668;BME280;3370;47.712;9.082;2022-10-18T03:33:49;98068.03;;;12.77;100.00
6668;BME280;3370;47.712;9.082;2022-10-18T03:36:15;98069.84;;;12.75;100.00
6668;BME280;3370;47.712;9.082;2022-10-18T03:38:41;98062.06;;;12.77;100.00
6668;BME280;3370;47.712;9.082;2022-10-18T03:41:07;98076.47;;;12.82;100.00
6668;BME280;3370;47.712;9.082;2022-10-18T03:43:33;98072.31;;;12.78;100.00
6668;BME280;3370;47.712;9.082;2022-10-18T03:46:00;98076.56;;;12.79;100.00
6668;BME280;3370;47.712;9.082;2022-10-18T03:48:26;98080.16;;;12.75;100.00
6668;BME280;3370;47.712;9.082;2022-10-18T03:50:52;98076.81;;;12.73;100.00
6668;BME280;3370;47.712;9.082;2022-10-18T03:53:18;98072.53;;;12.72;100.00
6668;BME280;3370;47.712;9.082;2022-10-18T03:55:44;98065.91;;;12.65;100.00
6668;BME280;3370;47.712;9.082;2022-10-18T03:58:09;98079.44;;;12.72;100.00
6668;BME280;3370;47.712;9.082;2022-10-18T04:00:35;98078.22;;;12.58;100.00
6668;BME280;3370;47.712;9.082;2022-10-18T04:03:01;98074.72;;;12.59;100.00
6668;BME280;3370;47.712;9.082;2022-10-18T04:05:27;98082.41;;;12.61;100.00
6668;BME280;3370;47.712;9.082;2022-10-18T04:07:55;98082.47;;;12.59;100.00
6668;BME280;3370;47.712;9.082;2022-10-18T04:10:22;98083.44;;;12.57;100.00
6668;BME280;3370;47.712;9.082;2022-10-18T04:12:47;98081.59;;;12.60;100.00
6668;BME280;3370;47.712;9.082;2022-10-18T04:15:14;98076.06;;;12.70;100.00
6668;BME280;3370;47.712;9.082;2022-10-18T04:17:39;98079.53;;;12.69;100.00
6668;BME280;3370;47.712;9.082;2022-10-18T04:20:06;98088.94;;;12.71;100.00
6668;BME280;3370;47.712;9.082;2022-10-18T04:22:32;98098.13;;;12.55;100.00
6668;BME280;3370;47.712;9.082;2022-10-18T04:24:58;98093.16;;;12.49;100.00
6668;BME280;3370;47.712;9.082;2022-10-18T04:27:24;98092.56;;;12.42;100.00
6668;BME280;3370;47.712;9.082;2022-10-18T04:29:50;98093.59;;;12.36;100.00
6668;BME280;3370;47.712;9.082;2022-10-18T04:32:16;98094.41;;;12.38;100.00
6668;BME280;3370;47.712;9.082;2022-10-18T04:34:42;98089.41;;;12.34;100.00
6668;BME280;3370;47.712;9.082;2022-10-18T04:37:07;98093.50;;;12.39;100.00
6668;BME280;3370;47.712;9.082;2022-10-18T04:39:33;98091.94;;;12.35;100.00
6668;BME280;3370;47.712;9.082;2022-10-18T04:41:59;98086.00;;;12.33;100.00
6668;BME280;3370;47.712;9.082;2022-10-18T04:44:25;98089.41;;;12.34;100.00
6668;BME280;3370;47.712;9.082;2022-10-18T04:46:50;98083.53;;;12.30;100.00
6668;BME280;3370;47.712;9.082;2022-10-18T04:49:16;98090.03;;;12.40;100.00
6668;BME280;3370;47.712;9.082;2022-10-18T04:51:42;98096.88;;;12.41;100.00
6668;BME280;3370;47.712;9.082;2022-10-18T04:54:08;98098.63;;;12.41;100.00
6668;BME280;3370;47.712;9.082;2022-10-18T04:56:34;98100.56;;;12.58;100.00
6668;BME280;3370;47.712;9.082;2022-10-18T04:59:00;98103.16;;;12.58;100.00
6668;BME280;3370;47.712;9.082;2022-10-18T05:01:26;98098.91;;;12.57;100.00
6668;BME280;3370;47.712;9.082;2022-10-18T05:03:53;98101.81;;;12.48;100.00
6668;BME280;3370;47.712;9.082;2022-10-18T05:06:20;98100.22;;;12.43;100.00
6668;BME280;3370;47.712;9.082;2022-10-18T05:08:46;98102.91;;;12.42;100.00
6668;BME280;3370;47.712;9.082;2022-10-18T05:11:12;98111.56;;;12.39;100.00
6668;BME280;3370;47.712;9.082;2022-10-18T05:13:38;98110.69;;;12.40;100.00
6668;BME280;3370;47.712;9.082;2022-10-18T05:16:05;98112.25;;;12.44;100.00
6668;BME280;3370;47.712;9.082;2022-10-18T05:18:31;98113.22;;;12.42;100.00
6668;BME280;3370;47.712;9.082;2022-10-18T05:20:57;98108.59;;;12.50;100.00
6668;BME280;3370;47.712;9.082;2022-10-18T05:23:23;98104.66;;;12.63;100.00
6668;BME280;3370;47.712;9.082;2022-10-18T05:25:50;98094.63;;;12.56;100.00
6668;BME280;3370;47.712;9.082;2022-10-18T05:28:16;98096.66;;;12.48;100.00
6668;BME280;3370;47.712;9.082;2022-10-18T05:30:42;98096.00;;;12.42;100.00
6668;BME280;3370;47.712;9.082;2022-10-18T05:33:08;98091.72;;;12.41;100.00
6668;BME280;3370;47.712;9.082;2022-10-18T05:35:34;98094.97;;;12.46;100.00
6668;BME280;3370;47.712;9.082;2022-10-18T05:38:04;98092.84;;;12.58;100.00
6668;BME280;3370;47.712;9.082;2022-10-18T05:40:32;98102.50;;;12.53;100.00
6668;BME280;3370;47.712;9.082;2022-10-18T05:42:57;98103.28;;;12.55;100.00
6668;BME280;3370;47.712;9.082;2022-10-18T05:45:23;98103.94;;;12.60;100.00
6668;BME280;3370;47.712;9.082;2022-10-18T05:47:49;98101.31;;;12.61;100.00
6668;BME280;3370;47.712;9.082;2022-10-18T05:50:15;98109.06;;;12.61;100.00
6668;BME280;3370;47.712;9.082;2022-10-18T05:52:41;98105.75;;;12.58;100.00
6668;BME280;3370;47.712;9.082;2022-10-18T05:55:07;98101.44;;;12.58;100.00
6668;BME280;3370;47.712;9.082;2022-10-18T05:57:33;98101.44;;;12.58;100.00
6668;BME280;3370;47.712;9.082;2022-10-18T05:59:58;98106.53;;;12.60;100.00
6668;BME280;3370;47.712;9.082;2022-10-18T06:02:24;98106.53;;;12.60;100.00
6668;BME280;3370;47.712;9.082;2022-10-18T06:04:50;98105.59;;;12.62;100.00
6668;BME280;3370;47.712;9.082;2022-10-18T06:07:16;98110.00;;;12.59;100.00
6668;BME280;3370;47.712;9.082;2022-10-18T06:09:42;98108.44;;;12.55;100.00
6668;BME280;3370;47.712;9.082;2022-10-18T06:12:07;98104.75;;;12.62;100.00
6668;BME280;3370;47.712;9.082;2022-10-18T06:14:35;98104.75;;;12.62;100.00
6668;BME280;3370;47.712;9.082;2022-10-18T06:17:02;98098.34;;;12.72;100.00
6668;BME280;3370;47.712;9.082;2022-10-18T06:19:28;98115.34;;;12.78;100.00
6668;BME280;3370;47.712;9.082;2022-10-18T06:21:53;98108.66;;;12.72;100.00
6668;BME280;3370;47.712;9.082;2022-10-18T06:24:19;98104.22;;;12.76;100.00
6668;BME280;3370;47.712;9.082;2022-10-18T06:26:46;98105.75;;;12.58;100.00
6668;BME280;3370;47.712;9.082;2022-10-18T06:29:12;98105.09;;;12.53;100.00
6668;BME280;3370;47.712;9.082;2022-10-18T06:31:38;98112.31;;;12.66;100.00
6668;BME280;3370;47.712;9.082;2022-10-18T06:34:04;98115.00;;;12.63;100.00
6668;BME280;3370;47.712;9.082;2022-10-18T06:36:30;98113.03;;;12.70;100.00
6668;BME280;3370;47.712;9.082;2022-10-18T06:38:56;98118.88;;;12.75;100.00
6668;BME280;3370;47.712;9.082;2022-10-18T06:41:24;98126.53;;;12.78;100.00
6668;BME280;3370;47.712;9.082;2022-10-18T06:43:52;98133.13;;;12.62;100.00
6668;BME280;3370;47.712;9.082;2022-10-18T06:46:21;98140.75;;;12.65;100.00
6668;BME280;3370;47.712;9.082;2022-10-18T06:48:47;98156.28;;;12.63;100.00
6668;BME280;3370;47.712;9.082;2022-10-18T06:51:13;98160.59;;;12.63;100.00
6668;BME280;3370;47.712;9.082;2022-10-18T06:53:40;98159.53;;;12.69;100.00
6668;BME280;3370;47.712;9.082;2022-10-18T06:56:10;98166.34;;;12.71;100.00
6668;BME280;3370;47.712;9.082;2022-10-18T06:58:37;98155.06;;;12.74;100.00
6668;BME280;3370;47.712;9.082;2022-10-18T07:01:13;98166.91;;;12.79;100.00
6668;BME280;3370;47.712;9.082;2022-10-18T07:03:41;98160.75;;;12.83;100.00
6668;BME280;3370;47.712;9.082;2022-10-18T07:06:10;98163.16;;;12.88;100.00
6668;BME280;3370;47.712;9.082;2022-10-18T07:08:36;98157.66;;;12.97;100.00
6668;BME280;3370;47.712;9.082;2022-10-18T07:11:04;98163.53;;;13.01;100.00
6668;BME280;3370;47.712;9.082;2022-10-18T07:13:31;98158.25;;;13.04;100.00
6668;BME280;3370;47.712;9.082;2022-10-18T07:16:06;98147.69;;;13.10;100.00
6668;BME280;3370;47.712;9.082;2022-10-18T07:18:35;98152.75;;;13.13;100.00
6668;BME280;3370;47.712;9.082;2022-10-18T07:21:04;98150.91;;;13.17;100.00
6668;BME280;3370;47.712;9.082;2022-10-18T07:23:35;98138.47;;;13.27;100.00
6668;BME280;3370;47.712;9.082;2022-10-18T07:28:38;98141.53;;;13.38;100.00
6668;BME280;3370;47.712;9.082;2022-10-18T07:31:09;98141.03;;;13.50;100.00
6668;BME280;3370;47.712;9.082;2022-10-18T07:33:35;98141.88;;;13.51;100.00
6668;BME280;3370;47.712;9.082;2022-10-18T07:36:07;98142.94;;;13.45;100.00
6668;BME280;3370;47.712;9.082;2022-10-18T07:38:35;98147.28;;;13.45;100.00
6668;BME280;3370;47.712;9.082;2022-10-18T07:41:03;98143.84;;;13.44;100.00
6668;BME280;3370;47.712;9.082;2022-10-18T07:43:32;98145.25;;;13.53;100.00
6668;BME280;3370;47.712;9.082;2022-10-18T07:46:01;98152.38;;;13.46;100.00
6668;BME280;3370;47.712;9.082;2022-10-18T07:48:27;98149.81;;;13.46;100.00
6668;BME280;3370;47.712;9.082;2022-10-18T07:50:56;98154.81;;;13.51;100.00
6668;BME280;3370;47.712;9.082;2022-10-18T07:53:22;98158.88;;;13.56;100.00
6668;BME280;3370;47.712;9.082;2022-10-18T07:55:48;98156.34;;;13.55;100.00
6668;BME280;3370;47.712;9.082;2022-10-18T07:58:14;98159.66;;;13.58;100.00
6668;BME280;3370;47.712;9.082;2022-10-18T08:00:39;98164.72;;;13.61;100.00
6668;BME280;3370;47.712;9.082;2022-10-18T08:03:05;98169.88;;;13.61;100.00
6668;BME280;3370;47.712;9.082;2022-10-18T08:05:32;98168.84;;;13.66;100.00
6668;BME280;3370;47.712;9.082;2022-10-18T08:07:59;98169.00;;;13.83;100.00
6668;BME280;3370;47.712;9.082;2022-10-18T08:10:25;98168.56;;;13.94;100.00
6668;BME280;3370;47.712;9.082;2022-10-18T08:12:52;98173.34;;;13.83;100.00
6668;BME280;3370;47.712;9.082;2022-10-18T08:15:17;98181.22;;;13.79;100.00
6668;BME280;3370;47.712;9.082;2022-10-18T08:17:44;98166.44;;;13.61;100.00
6668;BME280;3370;47.712;9.082;2022-10-18T08:20:10;98169.50;;;13.49;100.00
6668;BME280;3370;47.712;9.082;2022-10-18T08:22:36;98168.91;;;13.64;100.00
6668;BME280;3370;47.712;9.082;2022-10-18T08:25:02;98172.53;;;13.60;100.00
6668;BME280;3370;47.712;9.082;2022-10-18T08:27:29;98175.13;;;13.60;100.00
6668;BME280;3370;47.712;9.082;2022-10-18T08:29:54;98169.94;;;13.60;100.00
6668;BME280;3370;47.712;9.082;2022-10-18T08:32:20;98175.06;;;13.61;100.00
6668;BME280;3370;47.712;9.082;2022-10-18T08:34:46;98177.31;;;13.69;100.00
6668;BME280;3370;47.712;9.082;2022-10-18T08:37:12;98176.03;;;13.79;100.00
6668;BME280;3370;47.712;9.082;2022-10-18T08:39:38;98176.53;;;13.89;100.00
6668;BME280;3370;47.712;9.082;2022-10-18T08:42:39;98171.03;;;13.97;100.00
6668;BME280;3370;47.712;9.082;2022-10-18T08:45:11;98165.50;;;14.06;100.00
6668;BME280;3370;47.712;9.082;2022-10-18T08:47:47;98160.91;;;14.13;100.00
6668;BME280;3370;47.712;9.082;2022-10-18T08:50:21;98156.91;;;14.26;100.00
6668;BME280;3370;47.712;9.082;2022-10-18T08:55:54;98158.44;;;14.51;100.00
6668;BME280;3370;47.712;9.082;2022-10-18T08:58:25;98165.84;;;14.60;100.00
6668;BME280;3370;47.712;9.082;2022-10-18T09:06:34;98156.50;;;14.95;100.00
6668;BME280;3370;47.712;9.082;2022-10-18T09:09:44;98160.50;;;14.84;100.00
6668;BME280;3370;47.712;9.082;2022-10-18T09:15:50;98159.06;;;14.76;100.00
6668;BME280;3370;47.712;9.082;2022-10-18T09:18:50;98157.91;;;15.03;100.00
6668;BME280;3370;47.712;9.082;2022-10-18T09:21:51;98155.53;;;15.17;100.00
6668;BME280;3370;47.712;9.082;2022-10-18T09:27:00;98152.03;;;15.18;100.00
6668;BME280;3370;47.712;9.082;2022-10-18T09:30:13;98150.91;;;15.24;100.00
6668;BME280;3370;47.712;9.082;2022-10-18T09:32:54;98129.59;;;15.36;100.00
6668;BME280;3370;47.712;9.082;2022-10-18T09:35:32;98135.13;;;15.47;100.00
6668;BME280;3370;47.712;9.082;2022-10-18T09:38:04;98139.41;;;15.48;100.00
6668;BME280;3370;47.712;9.082;2022-10-18T09:40:46;98138.06;;;15.40;100.00
6668;BME280;3370;47.712;9.082;2022-10-18T09:43:24;98141.50;;;15.40;100.00
6668;BME280;3370;47.712;9.082;2022-10-18T09:45:52;98136.22;;;15.05;100.00
6668;BME280;3370;47.712;9.082;2022-10-18T09:51:10;98127.88;;;14.80;100.00
6668;BME280;3370;47.712;9.082;2022-10-18T09:54:07;98125.50;;;14.94;100.00
6668;BME280;3370;47.712;9.082;2022-10-18T09:56:49;98128.34;;;15.26;100.00
6668;BME280;3370;47.712;9.082;2022-10-18T09:59:42;98126.00;;;15.39;100.00
6668;BME280;3370;47.712;9.082;2022-10-18T10:02:19;98133.53;;;15.45;100.00
6668;BME280;3370;47.712;9.082;2022-10-18T10:04:49;98137.44;;;15.34;100.00
6668;BME280;3370;47.712;9.082;2022-10-18T10:07:41;98137.06;;;15.42;100.00
6668;BME280;3370;47.712;9.082;2022-10-18T10:10:17;98133.84;;;15.37;100.00
6668;BME280;3370;47.712;9.082;2022-10-18T10:12:45;98138.16;;;15.38;100.00
6668;BME280;3370;47.712;9.082;2022-10-18T10:15:22;98132.97;;;15.38;100.00
6668;BME280;3370;47.712;9.082;2022-10-18T10:20:47;98138.19;;;15.73;100.00
6668;BME280;3370;47.712;9.082;2022-10-18T10:26:01;98130.03;;;16.17;100.00
6668;BME280;3370;47.712;9.082;2022-10-18T10:28:33;98134.09;;;16.39;100.00
6668;BME280;3370;47.712;9.082;2022-10-18T10:34:19;98134.97;;;16.22;100.00
6668;BME280;3370;47.712;9.082;2022-10-18T10:36:54;98127.31;;;16.36;100.00
6668;BME280;3370;47.712;9.082;2022-10-18T10:39:23;98119.50;;;16.54;99.17
6668;BME280;3370;47.712;9.082;2022-10-18T10:41:58;98121.53;;;16.64;98.57
6668;BME280;3370;47.712;9.082;2022-10-18T10:44:31;98128.13;;;16.54;97.40
6668;BME280;3370;47.712;9.082;2022-10-18T10:46:59;98124.38;;;16.60;97.50
6668;BME280;3370;47.712;9.082;2022-10-18T10:49:45;98118.41;;;16.91;95.29
6668;BME280;3370;47.712;9.082;2022-10-18T10:52:19;98114.97;;;17.38;96.07
6668;BME280;3370;47.712;9.082;2022-10-18T10:54:45;98115.50;;;17.75;89.99
6668;BME280;3370;47.712;9.082;2022-10-18T10:59:45;98102.53;;;18.63;83.86
6668;BME280;3370;47.712;9.082;2022-10-18T11:04:44;98103.69;;;19.97;75.84
6668;BME280;3370;47.712;9.082;2022-10-18T11:07:35;98104.84;;;21.56;68.29
6668;BME280;3370;47.712;9.082;2022-10-18T11:10:14;98096.06;;;22.39;64.44
6668;BME280;3370;47.712;9.082;2022-10-18T11:18:07;98076.88;;;23.39;58.08
6668;BME280;3370;47.712;9.082;2022-10-18T11:20:39;98078.16;;;22.78;57.73
6668;BME280;3370;47.712;9.082;2022-10-18T11:23:16;98079.94;;;21.86;62.29
6668;BME280;3370;47.712;9.082;2022-10-18T11:25:48;98076.22;;;21.18;66.86
6668;BME280;3370;47.712;9.082;2022-10-18T11:43:11;98033.84;;;30.47;41.97
6668;BME280;3370;47.712;9.082;2022-10-18T11:52:08;98021.84;;;31.22;38.52
6668;BME280;3370;47.712;9.082;2022-10-18T12:01:34;98007.28;;;31.18;38.51
6668;BME280;3370;47.712;9.082;2022-10-18T12:06:37;98005.13;;;30.58;40.86
6668;BME280;3370;47.712;9.082;2022-10-18T12:09:44;98002.00;;;31.56;38.21
6668;BME280;3370;47.712;9.082;2022-10-18T12:12:32;98003.94;;;30.61;38.88
6668;BME280;3370;47.712;9.082;2022-10-18T12:15:06;98005.84;;;30.75;41.51
6668;BME280;3370;47.712;9.082;2022-10-18T12:17:44;97994.81;;;31.79;35.62
6668;BME280;3370;47.712;9.082;2022-10-18T12:20:40;98000.13;;;31.64;35.93
6668;BME280;3370;47.712;9.082;2022-10-18T12:23:46;97998.75;;;30.68;36.02
6668;BME280;3370;47.712;9.082;2022-10-18T12:26:16;98004.78;;;29.97;36.64
6668;BME280;3370;47.712;9.082;2022-10-18T12:29:16;97995.41;;;30.34;37.67
6668;BME280;3370;47.712;9.082;2022-10-18T12:31:52;98001.75;;;32.03;34.38
6668;BME280;3370;47.712;9.082;2022-10-18T12:34:29;97997.63;;;31.63;33.18
6668;BME280;3370;47.712;9.082;2022-10-18T12:40:20;98000.38;;;32.22;34.19
6668;BME280;3370;47.712;9.082;2022-10-18T12:42:49;97995.34;;;32.79;32.05
6668;BME280;3370;47.712;9.082;2022-10-18T12:45:29;97999.38;;;31.70;32.95
6668;BME280;3370;47.712;9.082;2022-10-18T12:48:07;97996.00;;;30.53;35.17
6668;BME280;3370;47.712;9.082;2022-10-18T12:51:19;97996.03;;;32.51;33.38
6668;BME280;3370;47.712;9.082;2022-10-18T13:09:26;97975.09;;;27.31;44.90
6668;BME280;3370;47.712;9.082;2022-10-18T13:20:36;97965.88;;;27.00;43.36
6668;BME280;3370;47.712;9.082;2022-10-18T13:34:41;97964.50;;;25.65;46.51
6668;BME280;3370;47.712;9.082;2022-10-18T13:39:35;97957.19;;;25.20;46.45
6668;BME280;3370;47.712;9.082;2022-10-18T13:44:31;97948.78;;;25.46;47.20
6668;BME280;3370;47.712;9.082;2022-10-18T13:59:14;97932.47;;;26.17;47.04
6668;BME280;3370;47.712;9.082;2022-10-18T14:05:04;97947.50;;;25.50;48.25
6668;BME280;3370;47.712;9.082;2022-10-18T14:07:34;97945.28;;;25.55;47.34
6668;BME280;3370;47.712;9.082;2022-10-18T14:10:02;97942.84;;;25.24;48.07
6668;BME280;3370;47.712;9.082;2022-10-18T14:12:46;97948.75;;;25.06;48.56
6668;BME280;3370;47.712;9.082;2022-10-18T14:15:28;97948.06;;;25.43;48.81
6668;BME280;3370;47.712;9.082;2022-10-18T14:17:59;97945.16;;;25.47;49.69
6668;BME280;3370;47.712;9.082;2022-10-18T14:20:39;97941.91;;;25.72;48.64
6668;BME280;3370;47.712;9.082;2022-10-18T14:23:30;97942.31;;;25.77;46.78
6668;BME280;3370;47.712;9.082;2022-10-18T14:26:12;97944.91;;;25.40;47.87
6668;BME280;3370;47.712;9.082;2022-10-18T14:28:39;97940.72;;;25.47;49.01
6668;BME280;3370;47.712;9.082;2022-10-18T14:31:12;97943.22;;;25.49;49.51
6668;BME280;3370;47.712;9.082;2022-10-18T14:33:53;97939.59;;;25.59;50.04
6668;BME280;3370;47.712;9.082;2022-10-18T14:38:58;97936.59;;;25.92;47.30
6668;BME280;3370;47.712;9.082;2022-10-18T14:41:36;97938.78;;;25.49;46.89
6668;BME280;3370;47.712;9.082;2022-10-18T14:44:18;97945.59;;;24.93;47.34
6668;BME280;3370;47.712;9.082;2022-10-18T14:47:01;97943.38;;;24.98;48.20
6668;BME280;3370;47.712;9.082;2022-10-18T14:49:28;97947.06;;;24.66;49.79
6668;BME280;3370;47.712;9.082;2022-10-18T14:51:58;97943.28;;;24.49;49.46
6668;BME280;3370;47.712;9.082;2022-10-18T14:54:31;97942.75;;;24.56;52.32
6668;BME280;3370;47.712;9.082;2022-10-18T14:57:00;97946.94;;;24.68;50.36
6668;BME280;3370;47.712;9.082;2022-10-18T14:59:33;97944.22;;;24.39;49.63
6668;BME280;3370;47.712;9.082;2022-10-18T15:02:13;97943.34;;;24.28;50.04
6668;BME280;3370;47.712;9.082;2022-10-18T15:04:43;97944.88;;;23.90;52.42
6668;BME280;3370;47.712;9.082;2022-10-18T15:07:15;97945.56;;;23.92;52.23
6668;BME280;3370;47.712;9.082;2022-10-18T15:09:42;97936.28;;;23.88;53.13
6668;BME280;3370;47.712;9.082;2022-10-18T15:12:13;97941.88;;;24.05;53.57
6668;BME280;3370;47.712;9.082;2022-10-18T15:14:40;97939.16;;;24.16;52.12
6668;BME280;3370;47.712;9.082;2022-10-18T15:17:28;97937.50;;;24.15;53.71
6668;BME280;3370;47.712;9.082;2022-10-18T15:20:02;97937.78;;;24.12;51.51
6668;BME280;3370;47.712;9.082;2022-10-18T15:22:40;97931.34;;;23.95;53.13
6668;BME280;3370;47.712;9.082;2022-10-18T15:25:26;97932.53;;;24.22;53.74
6668;BME280;3370;47.712;9.082;2022-10-18T15:27:57;97929.81;;;23.92;52.45
6668;BME280;3370;47.712;9.082;2022-10-18T15:30:43;97923.81;;;23.60;54.85
6668;BME280;3370;47.712;9.082;2022-10-18T15:33:21;97927.53;;;23.57;54.99
6668;BME280;3370;47.712;9.082;2022-10-18T15:35:48;97924.34;;;23.53;54.86
6668;BME280;3370;47.712;9.082;2022-10-18T15:38:26;97927.22;;;23.50;54.71
6668;BME280;3370;47.712;9.082;2022-10-18T15:40:54;97925.50;;;23.40;54.87
6668;BME280;3370;47.712;9.082;2022-10-18T15:46:05;97921.19;;;22.85;57.69
6668;BME280;3370;47.712;9.082;2022-10-18T15:48:40;97927.09;;;22.66;57.11
6668;BME280;3370;47.712;9.082;2022-10-18T15:51:48;97933.56;;;22.51;57.57
6668;BME280;3370;47.712;9.082;2022-10-18T15:54:19;97925.50;;;22.43;58.33
6668;BME280;3370;47.712;9.082;2022-10-18T15:56:54;97928.34;;;22.39;58.14
6668;BME280;3370;47.712;9.082;2022-10-18T15:59:23;97917.16;;;22.26;58.71
6668;BME280;3370;47.712;9.082;2022-10-18T16:01:50;97918.00;;;22.15;61.07
6668;BME280;3370;47.712;9.082;2022-10-18T16:04:28;97930.97;;;22.06;65.25
6668;BME280;3370;47.712;9.082;2022-10-18T16:06:56;97930.63;;;21.41;63.48
6668;BME280;3370;47.712;9.082;2022-10-18T16:09:25;97928.09;;;21.28;65.21
6668;BME280;3370;47.712;9.082;2022-10-18T16:11:51;97931.09;;;21.35;66.92
6668;BME280;3370;47.712;9.082;2022-10-18T16:14:19;97927.25;;;21.16;67.57
6668;BME280;3370;47.712;9.082;2022-10-18T16:16:45;97934.78;;;21.32;67.82